Idaho Falls Regional Airport
KIDA : now visible

Airfield :











YOU CAN JOIN US ON...

 
LOGIN :

Register | Disclaimer

   EN    FR    IT 

 









Legend :    VFR   Marginal VFR   IFR   Intensive IFR   Very Intensive IFR
Visi :
Ceiling :
>= 8 km
>= 3000ft
5 to 8 km
1000 to 3000 ft
1500m to 5 km
500 to 1000 ft
800 to 1500m
200 to 500 ft
< 800m
< 200 ft
Symbols :   Thunderstorms  Fog  Heavy snow  Heavy precipitations  Wind > 20 kt







- Airport Elevation : 4744 ft
- IATA code : IDA


KIDA - Idaho Falls Regional

CURRENT METAR :
  • 160553Z AUTO 34003KT 10SM CLR 12/04 A2987 RMK AO2 SLP073 T01220039 10294 20111 58005 $

EXPIRED METARs :
  • 160453Z AUTO 03003KT 10SM CLR 15/02 A2988 RMK AO2 SLP077 T01500022 $
  • 160353Z AUTO 16006KT 10SM CLR 22/M01 A2988 RMK AO2 SLP079 T02171011 $

TAF KIDA
Valid from the 16 at 06:00 until the 17 at 06:00 UTC


160520Z 1606/1706 16007KT P6SM SCT250
FM161800 21017G27KT P6SM SCT080 SCT150
FM170400 23020G30KT P6SM VCSH BKN050 BKN090
No reported NOTAMs for that airfield.



MET'MAP, your aeronautical weather chart ! - Copyright ORBIFLY December 2007 - Disclaimer

ORBIFLY MET'MAP TEAM :

Programming & Development : Alexandra Zaïnal
Concept & Development : Baudouin d'Aumeries
Co-Development & Prog : Marc-Olivier Méhu
Technical & hardware support : Manuel Goepfert

Contact : metmap@orbifly.com




SOURCES & CREDITS :

   NOAA       Earth
Advisory